createdAt,value
2018-05-08T00:01:19.319Z,5.03
2018-05-08T00:03:46.897Z,5.00
2018-05-08T00:06:14.451Z,5.10
2018-05-08T00:08:42.339Z,4.50
2018-05-08T00:11:10.645Z,4.17
2018-05-08T00:13:38.174Z,4.20
2018-05-08T00:16:06.505Z,4.30
2018-05-08T00:18:34.046Z,4.00
2018-05-08T00:21:01.748Z,4.10
2018-05-08T00:23:29.299Z,3.87
2018-05-08T00:25:56.848Z,3.80
2018-05-08T00:28:24.433Z,3.73
2018-05-08T00:30:51.978Z,4.10
2018-05-08T00:33:19.545Z,3.23
2018-05-08T00:35:47.101Z,3.60
2018-05-08T00:38:14.973Z,4.10
2018-05-08T00:40:42.513Z,4.00
2018-05-08T00:43:10.059Z,3.30
2018-05-08T00:45:37.644Z,3.77
2018-05-08T00:48:09.633Z,3.47
2018-05-08T00:50:37.253Z,3.57
2018-05-08T00:53:04.785Z,3.57
2018-05-08T00:55:32.359Z,3.40
2018-05-08T00:57:59.912Z,3.63
2018-05-08T01:00:27.490Z,3.60
2018-05-08T01:02:55.029Z,3.70
2018-05-08T01:05:22.626Z,4.43
2018-05-08T01:07:50.207Z,3.40
2018-05-08T01:10:17.756Z,3.70
2018-05-08T01:12:45.366Z,3.97
2018-05-08T01:15:12.925Z,3.57
2018-05-08T01:17:40.485Z,3.60
2018-05-08T01:20:08.697Z,3.67
2018-05-08T01:22:36.273Z,3.77
2018-05-08T01:25:03.832Z,4.10
2018-05-08T01:27:31.372Z,3.73
2018-05-08T01:29:58.931Z,3.90
2018-05-08T01:32:26.473Z,3.90
2018-05-08T01:34:54.054Z,3.90
2018-05-08T01:37:21.606Z,5.00
2018-05-08T01:39:49.172Z,4.20
2018-05-08T01:42:16.736Z,4.20
2018-05-08T01:44:44.307Z,4.10
2018-05-08T01:47:11.847Z,3.77
2018-05-08T01:49:39.416Z,4.10
2018-05-08T01:52:06.979Z,3.90
2018-05-08T01:54:34.517Z,3.93
2018-05-08T01:57:02.114Z,4.80
2018-05-08T01:59:29.667Z,4.23
2018-05-08T02:01:57.271Z,4.10
2018-05-08T02:04:24.815Z,4.33
2018-05-08T02:06:53.140Z,4.10
2018-05-08T02:09:20.717Z,4.57
2018-05-08T02:11:48.254Z,4.30
2018-05-08T02:14:15.812Z,4.00
2018-05-08T02:16:43.361Z,4.57
2018-05-08T02:19:10.940Z,4.60
2018-05-08T02:21:38.483Z,4.30
2018-05-08T02:24:06.146Z,4.30
2018-05-08T02:26:33.697Z,4.50
2018-05-08T02:29:01.238Z,4.60
2018-05-08T02:31:29.863Z,5.10
2018-05-08T02:33:57.427Z,5.13
2018-05-08T02:36:25.009Z,4.50
2018-05-08T02:38:52.545Z,4.60
2018-05-08T02:41:20.235Z,4.70
2018-05-08T02:43:47.791Z,4.43
2018-05-08T02:46:15.336Z,5.00
2018-05-08T02:48:42.911Z,4.50
2018-05-08T02:51:10.493Z,5.20
2018-05-08T02:53:39.214Z,4.60
2018-05-08T02:56:06.753Z,4.80
2018-05-08T02:58:34.302Z,4.37
2018-05-08T03:01:02.693Z,4.60
2018-05-08T03:03:30.995Z,5.50
2018-05-08T03:05:58.577Z,4.93
2018-05-08T03:08:26.109Z,4.97
2018-05-08T03:10:53.711Z,5.27
2018-05-08T03:13:21.261Z,4.83
2018-05-08T03:15:48.810Z,5.90
2018-05-08T03:18:16.386Z,5.10
2018-05-08T03:20:43.918Z,5.60
2018-05-08T03:23:11.512Z,4.63
2018-05-08T03:25:39.036Z,5.07
2018-05-08T03:28:06.623Z,5.30
2018-05-08T03:30:34.177Z,5.57
2018-05-08T03:33:01.733Z,5.10
2018-05-08T03:35:29.311Z,5.70
2018-05-08T03:37:56.896Z,5.27
2018-05-08T03:40:24.493Z,5.80
2018-05-08T03:42:52.026Z,5.03
2018-05-08T03:45:19.611Z,5.20
2018-05-08T03:47:47.145Z,5.03
2018-05-08T03:50:15.472Z,4.83
2018-05-08T03:52:43.022Z,6.00
2018-05-08T03:55:10.567Z,5.70
2018-05-08T03:57:38.130Z,5.83
2018-05-08T04:00:05.709Z,5.43
2018-05-08T04:02:44.972Z,5.80
2018-05-08T04:05:24.287Z,5.20
2018-05-08T04:08:03.974Z,5.30
2018-05-08T04:10:32.294Z,6.23
2018-05-08T04:12:59.842Z,6.40
2018-05-08T04:15:27.470Z,6.47
2018-05-08T04:17:55.028Z,5.90
2018-05-08T04:20:22.565Z,5.20
2018-05-08T04:22:50.129Z,6.30
2018-05-08T04:25:17.671Z,5.40
2018-05-08T04:27:45.225Z,5.10
2018-05-08T04:30:12.766Z,5.37
2018-05-08T04:32:40.348Z,5.07
2018-05-08T04:35:07.916Z,4.80
2018-05-08T04:37:35.515Z,4.70
2018-05-08T04:40:03.095Z,5.57
2018-05-08T04:42:30.679Z,5.50
2018-05-08T04:44:58.215Z,5.10
2018-05-08T04:47:26.251Z,5.07
2018-05-08T04:49:53.821Z,5.00
2018-05-08T04:52:21.460Z,5.13
2018-05-08T04:54:49.803Z,4.97
2018-05-08T04:57:17.351Z,6.00
2018-05-08T04:59:44.947Z,4.63
2018-05-08T05:02:12.478Z,4.90
2018-05-08T05:04:40.010Z,4.50
2018-05-08T05:07:07.696Z,5.53
2018-05-08T05:09:35.234Z,4.90
2018-05-08T05:12:02.788Z,4.67
2018-05-08T05:14:30.362Z,4.97
2018-05-08T05:16:57.957Z,4.77
2018-05-08T05:19:25.547Z,4.70
2018-05-08T05:21:53.865Z,5.00
2018-05-08T05:24:21.552Z,5.57
2018-05-08T05:26:49.102Z,5.53
2018-05-08T05:29:16.669Z,4.80
2018-05-08T05:31:45.048Z,5.67
2018-05-08T05:34:12.625Z,4.23
2018-05-08T05:36:40.161Z,5.23
2018-05-08T05:39:07.717Z,5.30
2018-05-08T05:41:35.296Z,4.27
2018-05-08T05:44:02.869Z,4.43
2018-05-08T05:46:30.453Z,5.30
2018-05-08T05:48:58.763Z,4.30
2018-05-08T05:51:26.365Z,4.77
2018-05-08T05:53:53.949Z,4.97
2018-05-08T05:56:22.418Z,4.67
2018-05-08T05:58:50.738Z,4.37
2018-05-08T06:01:18.773Z,4.70
2018-05-08T06:06:50.129Z,5.40
2018-05-08T06:09:18.470Z,4.17
2018-05-08T06:11:46.060Z,5.27
2018-05-08T06:14:13.680Z,4.87
2018-05-08T06:16:41.227Z,4.70
2018-05-08T06:19:08.799Z,7.20
2018-05-08T06:21:36.365Z,5.97
2018-05-08T06:24:03.977Z,5.27
2018-05-08T06:26:51.659Z,5.63
2018-05-08T06:29:19.767Z,4.60
2018-05-08T06:31:47.366Z,3.87
2018-05-08T06:34:14.906Z,4.83
2018-05-08T06:36:43.266Z,3.97
2018-05-08T06:39:10.873Z,4.73
2018-05-08T06:41:38.507Z,8.20
2018-05-08T06:44:06.840Z,4.67
2018-05-08T06:46:34.533Z,4.77
2018-05-08T06:49:02.193Z,5.10
2018-05-08T06:51:29.781Z,4.40
2018-05-08T06:53:57.334Z,5.50
2018-05-08T06:56:25.725Z,4.67
2018-05-08T06:58:53.288Z,6.57
2018-05-08T07:01:20.854Z,6.17
2018-05-08T07:03:49.233Z,5.07
2018-05-08T07:06:16.839Z,4.33
2018-05-08T07:11:37.538Z,4.90
2018-05-08T07:14:05.177Z,4.50
2018-05-08T07:16:32.887Z,5.43
2018-05-08T07:19:00.857Z,4.70
2018-05-08T07:21:28.446Z,8.00
2018-05-08T07:23:56.859Z,4.30
2018-05-08T07:26:24.575Z,4.40
2018-05-08T07:28:52.140Z,4.73
2018-05-08T07:31:19.837Z,4.40
2018-05-08T07:33:47.493Z,4.70
2018-05-08T07:36:15.111Z,4.40
2018-05-08T07:38:42.680Z,4.23
2018-05-08T07:41:10.247Z,5.23
2018-05-08T07:43:38.609Z,4.63
2018-05-08T07:46:06.188Z,3.93
2018-05-08T07:48:34.510Z,4.87
2018-05-08T07:51:02.466Z,4.20
2018-05-08T07:53:30.183Z,4.97
2018-05-08T07:55:57.775Z,4.57
2018-05-08T07:58:26.173Z,4.90
2018-05-08T08:00:53.751Z,4.53
2018-05-08T08:03:21.385Z,4.77
2018-05-08T08:05:49.723Z,4.53
2018-05-08T08:08:17.398Z,3.70
2018-05-08T08:10:45.815Z,3.90
2018-05-08T08:13:15.279Z,4.37
2018-05-08T08:15:42.855Z,3.93
2018-05-08T08:18:10.508Z,4.77
2018-05-08T08:20:38.132Z,3.40
2018-05-08T08:23:05.762Z,3.70
2018-05-08T08:25:34.173Z,4.30
2018-05-08T08:28:01.749Z,4.27
2018-05-08T08:30:29.413Z,4.50
2018-05-08T08:32:57.136Z,4.30
2018-05-08T08:35:24.850Z,4.40
2018-05-08T08:37:52.505Z,4.60
2018-05-08T08:40:20.056Z,4.50
2018-05-08T08:42:48.651Z,4.50
2018-05-08T08:45:16.217Z,4.10
2018-05-08T08:47:44.052Z,4.00
2018-05-08T08:50:11.615Z,3.83
2018-05-08T08:52:40.226Z,4.50
2018-05-08T08:55:07.871Z,4.60
2018-05-08T08:57:35.449Z,5.00
2018-05-08T09:00:03.076Z,4.90
2018-05-08T09:02:30.711Z,4.37
2018-05-08T09:04:58.314Z,4.47
2018-05-08T09:07:25.875Z,3.30
2018-05-08T09:09:53.451Z,3.57
2018-05-08T09:12:21.004Z,3.90
2018-05-08T09:14:48.625Z,3.60
2018-05-08T09:17:16.301Z,3.77
2018-05-08T09:19:43.923Z,3.30
2018-05-08T09:22:12.278Z,2.83
2018-05-08T09:24:40.712Z,3.37
2018-05-08T09:27:08.291Z,3.80
2018-05-08T09:29:35.943Z,4.00
2018-05-08T09:32:04.452Z,3.50
2018-05-08T09:34:32.208Z,3.70
2018-05-08T09:36:59.891Z,3.73
2018-05-08T09:39:27.639Z,3.30
2018-05-08T09:41:55.223Z,3.40
2018-05-08T09:44:23.537Z,2.80
2018-05-08T09:46:51.122Z,3.50
2018-05-08T09:49:18.694Z,2.90
2018-05-08T09:51:46.262Z,3.40
2018-05-08T09:54:13.874Z,4.70
2018-05-08T09:56:41.558Z,2.77
2018-05-08T09:59:09.189Z,2.67
2018-05-08T10:01:37.559Z,3.23
2018-05-08T10:04:05.926Z,2.57
2018-05-08T10:06:35.344Z,2.17
2018-05-08T10:09:03.800Z,2.50
2018-05-08T10:11:31.424Z,2.67
2018-05-08T10:13:59.016Z,2.80
2018-05-08T10:16:26.670Z,1.93
2018-05-08T10:18:55.871Z,2.20
2018-05-08T10:21:23.509Z,2.17
2018-05-08T10:23:51.075Z,1.97
2018-05-08T10:26:18.689Z,2.40
2018-05-08T10:28:46.290Z,2.80
2018-05-08T10:31:13.888Z,2.17
2018-05-08T10:33:42.215Z,2.50
2018-05-08T10:36:09.810Z,2.10
2018-05-08T10:38:37.463Z,2.37
2018-05-08T10:41:05.044Z,2.00
2018-05-08T10:43:32.635Z,2.10
2018-05-08T10:46:00.182Z,2.03
2018-05-08T10:48:28.838Z,1.93
2018-05-08T10:50:56.403Z,2.30
2018-05-08T10:53:23.950Z,1.90
2018-05-08T10:55:51.517Z,2.00
2018-05-08T10:58:19.165Z,2.27
2018-05-08T11:00:46.790Z,2.10
2018-05-08T11:03:14.360Z,2.40
2018-05-08T11:05:41.963Z,2.77
2018-05-08T11:08:09.620Z,1.90
2018-05-08T11:10:37.180Z,2.30
2018-05-08T11:13:04.965Z,2.23
2018-05-08T11:15:33.332Z,2.50
2018-05-08T11:18:01.128Z,2.80
2018-05-08T11:20:28.675Z,2.83
2018-05-08T11:22:57.047Z,2.50
2018-05-08T11:25:25.363Z,3.00
2018-05-08T11:27:53.001Z,3.10
2018-05-08T11:30:21.386Z,2.63
2018-05-08T11:32:48.975Z,2.80
2018-05-08T11:35:16.668Z,3.20
2018-05-08T11:37:44.244Z,2.60
2018-05-08T11:40:11.797Z,3.20
2018-05-08T11:42:39.387Z,3.13
2018-05-08T11:45:07.742Z,3.47
2018-05-08T11:47:35.739Z,2.77
2018-05-08T11:50:04.312Z,2.93
2018-05-08T11:52:32.039Z,3.10
2018-05-08T11:54:59.623Z,2.90
2018-05-08T11:57:27.207Z,2.83
2018-05-08T11:59:55.556Z,2.30
2018-05-08T12:02:23.145Z,2.50
2018-05-08T12:04:51.107Z,2.47
2018-05-08T12:07:19.467Z,2.57
2018-05-08T12:09:47.028Z,3.40
2018-05-08T12:12:14.611Z,2.83
2018-05-08T12:14:42.915Z,2.53
2018-05-08T12:17:10.481Z,2.73
2018-05-08T12:19:38.071Z,3.80
2018-05-08T12:22:05.784Z,3.07
2018-05-08T12:24:34.314Z,3.50
2018-05-08T12:27:02.728Z,3.60
2018-05-08T12:29:31.161Z,2.67
2018-05-08T12:31:58.713Z,3.67
2018-05-08T12:34:26.702Z,3.47
2018-05-08T12:36:54.350Z,2.50
2018-05-08T12:39:21.945Z,2.90
2018-05-08T12:41:49.497Z,3.40
2018-05-08T12:44:17.117Z,2.57
2018-05-08T12:46:44.740Z,2.80
2018-05-08T12:49:13.202Z,2.30
2018-05-08T12:51:40.736Z,2.77
2018-05-08T12:54:08.306Z,2.80
2018-05-08T12:56:35.961Z,3.60
2018-05-08T12:59:03.622Z,2.87
2018-05-08T13:01:31.952Z,3.20
2018-05-08T13:04:00.283Z,3.40
2018-05-08T13:06:28.014Z,2.87
2018-05-08T13:08:55.623Z,2.80
2018-05-08T13:11:23.249Z,2.60
2018-05-08T13:13:50.805Z,2.60
2018-05-08T13:16:18.436Z,2.97
2018-05-08T13:18:46.053Z,3.40
2018-05-08T13:21:14.031Z,2.97
2018-05-08T13:23:41.648Z,2.47
2018-05-08T13:26:09.191Z,2.53
2018-05-08T13:28:37.546Z,2.53
2018-05-08T13:31:05.197Z,2.67
2018-05-08T13:33:33.924Z,2.67
2018-05-08T13:36:01.482Z,2.93
2018-05-08T13:38:29.194Z,3.03
2018-05-08T13:40:56.869Z,2.70
2018-05-08T13:43:24.431Z,3.57
2018-05-08T13:45:52.752Z,3.00
2018-05-08T13:48:21.238Z,2.60
2018-05-08T13:50:48.857Z,2.90
2018-05-08T13:53:16.555Z,2.57
2018-05-08T13:55:44.144Z,3.20
2018-05-08T13:58:12.692Z,3.30
2018-05-08T14:00:40.410Z,2.60
2018-05-08T14:03:08.226Z,2.63
2018-05-08T14:05:35.823Z,3.40
2018-05-08T14:08:03.589Z,2.40
2018-05-08T14:10:31.227Z,3.17
2018-05-08T14:12:58.929Z,2.77
2018-05-08T14:15:26.788Z,2.83
2018-05-08T14:17:54.303Z,2.83
2018-05-08T14:20:22.229Z,2.63
2018-05-08T14:22:49.821Z,3.03
2018-05-08T14:25:18.263Z,2.77
2018-05-08T14:27:45.949Z,2.37
2018-05-08T14:30:14.290Z,2.53
2018-05-08T14:32:41.867Z,2.77
2018-05-08T14:35:09.423Z,2.40
2018-05-08T14:37:37.029Z,2.70
2018-05-08T14:40:04.868Z,3.63
2018-05-08T14:42:33.199Z,2.57
2018-05-08T14:45:01.636Z,2.57
2018-05-08T14:47:31.103Z,2.70
2018-05-08T14:49:58.659Z,2.70
2018-05-08T14:52:26.378Z,3.00
2018-05-08T14:54:53.945Z,2.70
2018-05-08T14:57:21.526Z,3.13
2018-05-08T14:59:49.104Z,2.80
2018-05-08T15:02:17.143Z,3.47
2018-05-08T15:04:44.793Z,3.10
2018-05-08T15:07:12.369Z,2.83
2018-05-08T15:09:40.004Z,3.07
2018-05-08T15:12:08.325Z,3.20
2018-05-08T15:14:35.939Z,3.30
2018-05-08T15:17:04.371Z,3.00
2018-05-08T15:19:31.929Z,3.37
2018-05-08T15:21:59.828Z,3.30
2018-05-08T15:24:27.370Z,2.77
2018-05-08T15:26:55.075Z,3.13
2018-05-08T15:29:23.415Z,3.17
2018-05-08T15:31:51.033Z,2.40
2018-05-08T15:34:18.615Z,2.90
2018-05-08T15:36:46.191Z,2.70
2018-05-08T15:39:13.767Z,2.50
2018-05-08T15:41:42.123Z,3.83
2018-05-08T15:44:09.739Z,2.70
2018-05-08T15:46:38.113Z,3.23
2018-05-08T15:49:05.751Z,3.63
2018-05-08T15:51:33.323Z,3.13
2018-05-08T15:54:00.944Z,3.00
2018-05-08T15:56:28.519Z,3.23
2018-05-08T15:58:56.193Z,3.27
2018-05-08T16:01:23.778Z,3.67
2018-05-08T16:03:52.221Z,3.33
2018-05-08T16:06:19.811Z,3.30
2018-05-08T16:08:47.396Z,3.30
2018-05-08T16:11:14.980Z,3.30
2018-05-08T16:13:43.585Z,3.60
2018-05-08T16:16:11.567Z,3.30
2018-05-08T16:18:40.031Z,3.27
2018-05-08T16:21:08.532Z,3.50
2018-05-08T16:23:36.085Z,4.10
2018-05-08T16:26:03.977Z,3.53
2018-05-08T16:28:31.591Z,3.70
2018-05-08T16:30:59.127Z,3.97
2018-05-08T16:33:26.785Z,4.63
2018-05-08T16:35:54.409Z,3.70
2018-05-08T16:38:23.301Z,3.77
2018-05-08T16:40:50.936Z,4.13
2018-05-08T16:43:18.507Z,3.10
2018-05-08T16:45:46.244Z,3.90
2018-05-08T16:48:15.060Z,4.27
2018-05-08T16:50:42.604Z,3.80
2018-05-08T16:53:10.207Z,3.90
2018-05-08T16:55:37.903Z,4.00
2018-05-08T16:58:05.459Z,3.73
2018-05-08T17:00:33.063Z,4.00
2018-05-08T17:03:00.645Z,4.17
2018-05-08T17:05:28.284Z,4.23
2018-05-08T17:07:55.864Z,4.83
2018-05-08T17:10:23.592Z,4.20
2018-05-08T17:12:51.164Z,4.20
2018-05-08T17:15:18.779Z,3.93
2018-05-08T17:17:47.103Z,4.47
2018-05-08T17:20:14.703Z,4.60
2018-05-08T17:22:42.305Z,4.50
2018-05-08T17:25:09.852Z,3.97
2018-05-08T17:27:37.496Z,4.30
2018-05-08T17:30:05.218Z,4.30
2018-05-08T17:32:32.915Z,4.90
2018-05-08T17:35:00.469Z,4.70
2018-05-08T17:37:28.195Z,5.10
2018-05-08T17:39:55.780Z,4.77
2018-05-08T17:42:23.368Z,5.10
2018-05-08T17:44:51.697Z,5.40
2018-05-08T17:47:19.404Z,4.73
2018-05-08T17:49:47.050Z,4.60
2018-05-08T17:52:14.576Z,5.17
2018-05-08T17:54:42.144Z,7.20
2018-05-08T17:57:09.817Z,4.57
2018-05-08T17:59:37.389Z,5.00
2018-05-08T18:02:05.021Z,5.20
2018-05-08T18:04:33.542Z,4.87
2018-05-08T18:07:01.087Z,4.40
2018-05-08T18:09:28.679Z,4.47
2018-05-08T18:11:57.005Z,4.80
2018-05-08T18:14:24.647Z,4.97
2018-05-08T18:16:52.204Z,5.27
2018-05-08T18:19:19.946Z,5.50
2018-05-08T18:21:48.268Z,5.43
2018-05-08T18:24:15.923Z,4.80
2018-05-08T18:26:43.496Z,6.37
2018-05-08T18:29:11.069Z,5.60
2018-05-08T18:31:38.783Z,5.33
2018-05-08T18:34:06.349Z,6.40
2018-05-08T18:36:34.721Z,5.63
2018-05-08T18:39:03.188Z,5.40
2018-05-08T18:41:30.823Z,5.63
2018-05-08T18:43:58.487Z,5.33
2018-05-08T18:48:53.325Z,5.53
2018-05-08T18:51:20.925Z,6.07
2018-05-08T18:53:48.517Z,5.33
2018-05-08T18:56:16.095Z,5.33
2018-05-08T18:58:43.739Z,5.50
2018-05-08T19:01:11.347Z,5.70
2018-05-08T19:03:39.728Z,5.33
2018-05-08T19:06:07.326Z,5.40
2018-05-08T19:08:34.913Z,5.37
2018-05-08T19:11:08.207Z,5.70
2018-05-08T19:13:35.771Z,5.77
2018-05-08T19:16:06.153Z,6.47
2018-05-08T19:18:39.286Z,5.80
2018-05-08T19:21:06.990Z,5.43
2018-05-08T19:23:35.545Z,5.10
2018-05-08T19:26:03.091Z,6.40
2018-05-08T19:28:36.423Z,6.47
2018-05-08T19:31:04.754Z,6.17
2018-05-08T19:33:32.321Z,6.20
2018-05-08T19:36:05.603Z,6.10
2018-05-08T19:38:33.179Z,5.10
2018-05-08T19:41:00.767Z,5.83
2018-05-08T19:43:29.090Z,6.30
2018-05-08T19:45:56.710Z,6.77
2018-05-08T19:48:25.085Z,6.30
2018-05-08T19:50:52.646Z,5.70
2018-05-08T19:53:21.015Z,6.87
2018-05-08T19:55:49.560Z,6.77
2018-05-08T19:58:17.232Z,6.10
2018-05-08T20:00:44.793Z,6.60
2018-05-08T20:03:12.427Z,5.97
2018-05-08T20:05:39.972Z,6.47
2018-05-08T20:08:08.315Z,6.17
2018-05-08T20:10:35.865Z,6.20
2018-05-08T20:13:03.426Z,7.00
2018-05-08T20:15:30.990Z,6.53
2018-05-08T20:17:58.726Z,7.70
2018-05-08T20:20:26.299Z,6.77
2018-05-08T20:22:53.921Z,6.40
2018-05-08T20:25:21.505Z,7.03
2018-05-08T20:27:49.230Z,7.33
2018-05-08T20:30:17.604Z,6.67
2018-05-08T20:32:45.920Z,6.70
2018-05-08T20:35:13.654Z,5.90
2018-05-08T20:37:41.212Z,6.83
2018-05-08T20:40:09.873Z,6.60
2018-05-08T20:42:38.219Z,6.70
2018-05-08T20:45:05.888Z,6.90
2018-05-08T20:47:33.540Z,7.40
2018-05-08T20:50:01.109Z,6.67
2018-05-08T20:52:28.704Z,6.53
2018-05-08T20:54:56.266Z,7.30
2018-05-08T20:57:23.855Z,7.20
2018-05-08T20:59:51.443Z,6.00
2018-05-08T21:02:19.018Z,7.43
2018-05-08T21:04:46.676Z,6.73
2018-05-08T21:07:16.228Z,6.43
2018-05-08T21:09:43.894Z,6.20
2018-05-08T21:12:12.231Z,6.40
2018-05-08T21:14:39.889Z,7.10
2018-05-08T21:17:07.441Z,6.83
2018-05-08T21:19:34.983Z,7.37
2018-05-08T21:22:03.370Z,6.27
2018-05-08T21:24:30.995Z,6.03
2018-05-08T21:26:59.449Z,6.90
2018-05-08T21:29:32.618Z,6.80
2018-05-08T21:32:00.281Z,6.80
2018-05-08T21:34:27.961Z,5.90
2018-05-08T21:36:55.618Z,6.30
2018-05-08T21:39:23.345Z,6.57
2018-05-08T21:41:50.935Z,6.53
2018-05-08T21:44:18.491Z,5.90
2018-05-08T21:46:46.083Z,6.63
2018-05-08T21:49:13.675Z,9.63
2018-05-08T21:51:41.998Z,6.80
2018-05-08T21:54:09.575Z,6.40
2018-05-08T21:56:37.171Z,6.60
2018-05-08T21:59:04.751Z,5.73
2018-05-08T22:01:32.304Z,6.50
2018-05-08T22:03:59.891Z,5.40
2018-05-08T22:06:27.455Z,6.03
2018-05-08T22:08:55.070Z,6.03
2018-05-08T22:11:23.387Z,5.30
2018-05-08T22:13:51.084Z,5.50
2018-05-08T22:16:18.670Z,5.40
2018-05-08T22:18:47.067Z,5.47
2018-05-08T22:21:14.712Z,5.50
2018-05-08T22:23:43.049Z,5.30
2018-05-08T22:26:10.613Z,5.00
2018-05-08T22:28:38.170Z,4.97
2018-05-08T22:31:05.771Z,4.87
2018-05-08T22:33:34.077Z,4.93
2018-05-08T22:36:01.604Z,4.77
2018-05-08T22:38:29.953Z,5.23
2018-05-08T22:40:57.514Z,7.90
2018-05-08T22:43:25.095Z,4.70
2018-05-08T22:45:53.423Z,5.10
2018-05-08T22:51:14.355Z,4.93
2018-05-08T22:53:48.770Z,4.70
2018-05-08T22:56:16.362Z,5.20
2018-05-08T22:58:43.902Z,4.73
2018-05-08T23:01:11.474Z,5.13
2018-05-08T23:03:39.031Z,4.43
2018-05-08T23:06:06.604Z,4.70
2018-05-08T23:08:34.201Z,4.67
2018-05-08T23:11:01.747Z,4.90
2018-05-08T23:13:30.085Z,5.30
2018-05-08T23:15:57.635Z,4.50
2018-05-08T23:18:25.278Z,4.43
2018-05-08T23:20:52.822Z,4.40
2018-05-08T23:23:20.357Z,4.40
2018-05-08T23:25:49.020Z,4.70
2018-05-08T23:28:16.577Z,5.37
2018-05-08T23:30:44.136Z,4.30
2018-05-08T23:33:11.744Z,5.63
2018-05-08T23:35:39.318Z,5.47
2018-05-08T23:38:06.894Z,5.00
2018-05-08T23:40:34.476Z,5.40
2018-05-08T23:43:02.155Z,5.40
2018-05-08T23:45:29.741Z,5.57
2018-05-08T23:47:57.377Z,6.70
2018-05-08T23:50:24.934Z,5.10
2018-05-08T23:52:52.519Z,5.10
2018-05-08T23:55:20.199Z,5.40
2018-05-08T23:57:47.792Z,5.77
